5 day graph

You are here

Hive Data

Page: 1 of 16645  Records: 998690

Row Date Time Hive Temp Hive Humidity Outside Temp Outside Humidity Bottom Board Temp Outside Wall Temp Electronics Temp Light Levels inHG Fan Heat Cover Notes
Clear Sorted By: Heat ascending, Hive Humidity ascending, Row descending
View 48335 Jun 7 2014 8:25:04pm 32 0 71.06 45 80.6 71.6 87.8 623 29.43 0 0 0 NA
View 949189 May 11 2016 4:56:13pm 83.3 18 82.76 18 92.3 79.7 95 8 29.22 0 0 0 NA
View 949206 May 11 2016 5:13:16pm 81.5 19 83.3 18 91.85 79.25 95 7 29.22 0 0 0 NA
View 949205 May 11 2016 5:12:16pm 81.5 19 83.48 18 91.85 79.25 95 6 29.22 0 0 0 NA
View 949204 May 11 2016 5:11:16pm 81.5 19 83.48 19 91.85 79.25 95 6 29.22 0 0 0 NA
View 949201 May 11 2016 5:08:16pm 81.68 19 83.3 18 92.3 79.25 95 7 29.22 0 0 0 NA
View 949199 May 11 2016 5:06:15pm 82.04 19 83.3 19 92.3 79.25 95 6 29.22 0 0 0 NA
View 949198 May 11 2016 5:05:15pm 82.04 19 83.12 18 92.3 79.25 95 6 29.22 0 0 0 NA
View 949197 May 11 2016 5:04:15pm 82.04 19 83.12 19 92.3 79.25 95 6 29.22 0 0 0 NA
View 949196 May 11 2016 5:03:14pm 82.22 19 82.94 19 92.3 79.25 95 5 29.22 0 0 0 NA
View 949194 May 11 2016 5:01:14pm 82.22 19 82.94 19 92.3 79.25 95 8 29.22 0 0 0 NA
View 949193 May 11 2016 5:00:14pm 82.4 19 82.94 18 92.3 79.25 95 7 29.22 0 0 0 NA
View 949192 May 11 2016 4:59:14pm 82.58 19 82.94 18 92.3 79.25 95 6 29.22 0 0 0 NA
View 949191 May 11 2016 4:58:13pm 82.94 19 82.76 19 92.3 79.25 95 5 29.22 0 0 0 NA
View 949190 May 11 2016 4:57:13pm 83.12 19 82.94 19 92.3 79.7 95 6 29.22 0 0 0 NA
View 949188 May 11 2016 4:55:13pm 83.3 19 82.76 19 92.3 79.7 95 7 29.22 0 0 0 NA
View 949184 May 11 2016 4:51:12pm 82.04 19 82.58 19 92.3 79.7 95 6 29.23 0 0 0 NA
View 949183 May 11 2016 4:50:12pm 81.86 19 82.58 18 92.3 80.15 95 7 29.22 0 0 0 NA
View 949182 May 11 2016 4:49:11pm 82.04 19 82.76 19 92.3 80.15 95 5 29.23 0 0 0 NA
View 949181 May 11 2016 4:48:11pm 82.04 19 82.76 18 92.3 80.15 95 6 29.23 0 0 0 NA
View 949180 May 11 2016 4:47:11pm 82.04 19 82.76 19 92.3 80.15 93.2 7 29.22 0 0 0 NA
View 949179 May 11 2016 4:46:11pm 82.04 19 82.58 19 92.3 80.15 93.2 6 29.23 0 0 0 NA
View 949178 May 11 2016 4:45:11pm 82.04 19 82.58 19 92.3 80.15 93.2 7 29.23 0 0 0 NA
View 949177 May 11 2016 4:44:11pm 82.22 19 82.58 19 92.3 80.15 93.2 6 29.22 0 0 0 NA
View 949176 May 11 2016 4:43:10pm 82.22 19 82.58 19 92.3 80.15 95 7 29.22 0 0 0 NA
View 949175 May 11 2016 4:42:10pm 82.22 19 82.76 18 92.3 80.15 95 7 29.23 0 0 0 NA
View 949173 May 11 2016 4:40:10pm 82.22 19 82.94 19 92.3 80.15 93.2 6 29.22 0 0 0 NA
View 949170 May 11 2016 4:37:09pm 82.22 19 83.12 19 92.3 80.15 95 6 29.23 0 0 0 NA
View 949163 May 11 2016 4:30:08pm 82.04 19 83.66 19 92.3 80.15 95 7 29.23 0 0 0 NA
View 949162 May 11 2016 4:29:07pm 82.22 19 83.84 19 92.3 80.15 95 7 29.23 0 0 0 NA
View 949161 May 11 2016 4:28:07pm 82.22 19 84.02 18 92.3 80.15 95 7 29.23 0 0 0 NA
View 949160 May 11 2016 4:27:07pm 82.22 19 84.02 18 92.3 80.15 95 6 29.23 0 0 0 NA
View 949159 May 11 2016 4:26:07pm 82.22 19 84.2 19 92.3 80.15 95 7 29.23 0 0 0 NA
View 949152 May 11 2016 4:19:05pm 82.76 19 84.02 19 92.3 80.15 95 6 29.23 0 0 0 NA
View 949147 May 11 2016 4:14:04pm 83.12 19 83.84 19 92.3 80.6 95 7 29.23 0 0 0 NA
View 949146 May 11 2016 4:13:04pm 83.12 19 83.84 19 92.3 80.6 95 8 29.23 0 0 0 NA
View 949145 May 11 2016 4:12:04pm 83.3 19 84.02 19 92.3 80.6 95 7 29.23 0 0 0 NA
View 949127 May 11 2016 3:54:00pm 84.56 19 82.4 21 92.3 81.95 93.2 7 29.24 0 0 0 NA
View 949068 May 11 2016 2:54:47pm 86.54 19 83.3 21 90.95 84.65 93.2 8 29.25 0 0 0 NA
View 949267 May 11 2016 6:14:30pm 81.5 20 84.38 19 91.4 77.9 91.4 5 29.21 0 0 0 NA
View 949266 May 11 2016 6:13:29pm 81.68 20 84.2 20 91.4 77.9 91.4 4 29.21 0 0 0 NA
View 949265 May 11 2016 6:12:29pm 81.68 20 84.2 19 91.4 77.9 91.4 4 29.21 0 0 0 NA
View 949264 May 11 2016 6:11:29pm 81.86 20 84.02 19 91.4 77.9 91.4 5 29.21 0 0 0 NA
View 949263 May 11 2016 6:10:29pm 81.86 20 83.84 19 91.4 78.35 91.4 5 29.21 0 0 0 NA
View 949256 May 11 2016 6:03:27pm 82.04 20 83.84 19 91.85 78.35 91.4 4 29.21 0 0 0 NA
View 949255 May 11 2016 6:02:27pm 82.04 20 83.66 19 91.85 78.35 91.4 6 29.21 0 0 0 NA
View 949254 May 11 2016 6:01:27pm 82.04 20 83.66 19 91.85 78.35 91.4 4 29.21 0 0 0 NA
View 949253 May 11 2016 6:00:26pm 82.04 20 83.48 19 91.85 78.8 91.4 5 29.21 0 0 0 NA
View 949251 May 11 2016 5:58:26pm 82.22 20 83.66 19 91.85 78.8 91.4 4 29.21 0 0 0 NA
View 949245 May 11 2016 5:52:25pm 82.04 20 83.3 19 91.4 78.8 91.4 5 29.21 0 0 0 NA
View 949244 May 11 2016 5:51:25pm 82.04 20 83.12 20 91.85 79.25 91.4 6 29.21 0 0 0 NA
View 949241 May 11 2016 5:48:24pm 82.04 20 82.76 19 91.85 79.25 91.4 5 29.21 0 0 0 NA
View 949230 May 11 2016 5:37:22pm 82.22 20 82.94 19 91.4 79.25 93.2 5 29.21 0 0 0 NA
View 949229 May 11 2016 5:36:22pm 82.4 20 82.76 19 91.85 79.25 93.2 5 29.21 0 0 0 NA
View 949228 May 11 2016 5:35:21pm 82.4 20 82.58 20 91.4 79.25 93.2 6 29.22 0 0 0 NA
View 949225 May 11 2016 5:32:21pm 82.22 20 82.4 20 91.85 79.25 93.2 6 29.21 0 0 0 NA
View 949224 May 11 2016 5:31:20pm 82.22 20 82.4 20 91.85 79.25 93.2 6 29.22 0 0 0 NA
View 949223 May 11 2016 5:30:20pm 82.22 20 82.4 20 91.85 79.7 93.2 6 29.22 0 0 0 NA
View 949222 May 11 2016 5:29:20pm 82.22 20 82.4 19 91.85 79.7 93.2 5 29.22 0 0 0 NA
View 949219 May 11 2016 5:26:20pm 81.86 20 82.58 19 91.85 79.7 93.2 5 29.22 0 0 0 NA